createdAt,value
2022-10-23T00:00:18.013Z,0.73
2022-10-23T00:02:45.168Z,0.65
2022-10-23T00:05:12.117Z,0.43
2022-10-23T00:07:38.879Z,0.43
2022-10-23T00:10:07.911Z,0.52
2022-10-23T00:12:34.841Z,1.60
2022-10-23T00:15:01.785Z,0.52
2022-10-23T00:17:28.445Z,0.32
2022-10-23T00:19:55.129Z,0.68
2022-10-23T00:22:22.106Z,0.32
2022-10-23T00:24:48.799Z,0.50
2022-10-23T00:27:16.797Z,0.40
2022-10-23T00:29:45.083Z,0.40
2022-10-23T00:32:11.847Z,0.55
2022-10-23T00:34:38.577Z,0.55
2022-10-23T00:37:05.378Z,0.60
2022-10-23T00:39:32.070Z,0.63
2022-10-23T00:41:59.087Z,0.52
2022-10-23T00:45:03.131Z,0.73
2022-10-23T00:47:31.141Z,0.60
2022-10-23T00:49:58.820Z,0.57
2022-10-23T00:52:25.508Z,0.55
2022-10-23T00:54:52.605Z,0.73
2022-10-23T00:57:19.358Z,0.40
2022-10-23T00:59:46.144Z,0.55
2022-10-23T01:02:13.215Z,0.52
2022-10-23T01:04:41.770Z,0.43
2022-10-23T01:07:15.133Z,0.40
2022-10-23T01:09:48.198Z,0.60
2022-10-23T01:12:20.989Z,0.45
2022-10-23T01:15:00.146Z,0.52
2022-10-23T01:17:34.208Z,0.60
2022-10-23T01:20:14.188Z,0.38
2022-10-23T01:23:05.540Z,0.52
2022-10-23T01:25:55.570Z,0.30
2022-10-23T01:28:29.538Z,0.40
2022-10-23T01:30:58.152Z,0.40
2022-10-23T01:33:35.285Z,0.50
2022-10-23T01:36:05.893Z,0.45
2022-10-23T01:38:41.219Z,0.30
2022-10-23T01:41:20.936Z,0.43
2022-10-23T01:43:54.643Z,0.43
2022-10-23T01:46:23.619Z,0.20
2022-10-23T01:48:53.201Z,1.13
2022-10-23T01:51:25.022Z,0.50
2022-10-23T01:53:57.263Z,0.22
2022-10-23T01:56:28.903Z,0.63
2022-10-23T01:59:00.831Z,0.68
2022-10-23T02:01:33.026Z,0.40
2022-10-23T02:04:03.286Z,0.52
2022-10-23T02:06:30.910Z,0.50
2022-10-23T02:08:57.755Z,0.32
2022-10-23T02:11:24.857Z,0.40
2022-10-23T02:14:01.207Z,0.35
2022-10-23T02:16:36.925Z,0.63
2022-10-23T02:19:12.819Z,0.63
2022-10-23T02:24:13.723Z,0.50
2022-10-23T02:26:51.492Z,0.70
2022-10-23T02:29:26.479Z,0.73
2022-10-23T02:31:55.244Z,0.77
2022-10-23T02:34:22.942Z,0.65
2022-10-23T02:36:49.754Z,1.05
2022-10-23T02:39:20.127Z,0.90
2022-10-23T02:41:54.820Z,0.88
2022-10-23T02:44:34.054Z,0.93
2022-10-23T02:47:14.158Z,1.02
2022-10-23T02:49:50.697Z,0.52
2022-10-23T02:52:24.235Z,0.52
2022-10-23T02:55:05.202Z,0.70
2022-10-23T02:57:49.681Z,0.70
2022-10-23T03:00:20.323Z,0.65
2022-10-23T03:02:56.705Z,0.40
2022-10-23T03:07:54.247Z,0.80
2022-10-23T03:10:21.233Z,0.35
2022-10-23T03:12:48.844Z,0.52
2022-10-23T03:15:17.814Z,0.52
2022-10-23T03:17:44.521Z,0.65
2022-10-23T03:20:11.525Z,0.35
2022-10-23T03:22:38.310Z,0.65
2022-10-23T03:25:07.831Z,0.45
2022-10-23T03:27:35.627Z,0.57
2022-10-23T03:30:06.186Z,0.43
2022-10-23T03:32:36.582Z,0.43
2022-10-23T03:35:03.741Z,0.63
2022-10-23T03:37:30.527Z,0.73
2022-10-23T03:39:57.311Z,0.57
2022-10-23T03:42:24.028Z,0.60
2022-10-23T03:44:50.714Z,0.55
2022-10-23T03:47:18.875Z,0.52
2022-10-23T03:49:46.963Z,0.60
2022-10-23T03:52:13.855Z,0.55
2022-10-23T03:54:40.608Z,0.43
2022-10-23T03:57:07.345Z,0.43
2022-10-23T03:59:34.143Z,0.52
2022-10-23T04:02:01.002Z,0.52
2022-10-23T04:04:27.820Z,0.80
2022-10-23T04:06:55.770Z,0.40
2022-10-23T04:09:22.770Z,0.65
2022-10-23T04:11:49.409Z,0.98
2022-10-23T04:14:16.639Z,0.63
2022-10-23T04:16:43.300Z,1.08
2022-10-23T04:19:10.208Z,1.52
2022-10-23T04:21:36.862Z,1.77
2022-10-23T04:24:05.754Z,2.25
2022-10-23T04:26:32.519Z,1.60
2022-10-23T04:28:59.282Z,1.15
2022-10-23T04:31:28.612Z,1.00
2022-10-23T04:33:55.494Z,1.42
2022-10-23T04:36:28.997Z,0.70
2022-10-23T04:38:58.739Z,0.80
2022-10-23T04:41:27.025Z,0.63
2022-10-23T04:43:53.666Z,0.57
2022-10-23T04:46:20.344Z,0.70
2022-10-23T04:48:48.494Z,0.90
2022-10-23T04:51:29.570Z,0.60
2022-10-23T04:54:38.005Z,0.57
2022-10-23T04:57:21.298Z,0.55
2022-10-23T05:00:06.088Z,0.70
2022-10-23T05:02:40.338Z,0.52
2022-10-23T05:05:08.079Z,0.60
2022-10-23T05:07:57.449Z,0.95
2022-10-23T05:10:47.904Z,1.05
2022-10-23T05:13:19.649Z,0.60
2022-10-23T05:15:48.279Z,1.48
2022-10-23T05:18:22.921Z,0.93
2022-10-23T05:20:52.131Z,0.80
2022-10-23T05:23:21.957Z,1.13
2022-10-23T05:25:55.217Z,2.30
2022-10-23T05:28:23.623Z,1.98
2022-10-23T05:30:51.378Z,1.35
2022-10-23T05:33:18.214Z,1.42
2022-10-23T05:35:45.560Z,1.40
2022-10-23T05:38:15.606Z,1.17
2022-10-23T05:40:43.475Z,1.15
2022-10-23T05:43:15.434Z,2.00
2022-10-23T05:45:50.729Z,0.70
2022-10-23T05:48:35.398Z,0.90
2022-10-23T05:51:10.844Z,0.95
2022-10-23T05:53:47.651Z,1.20
2022-10-23T05:56:30.751Z,1.13
2022-10-23T05:59:05.258Z,1.38
2022-10-23T06:01:53.706Z,1.30
2022-10-23T06:04:36.625Z,1.20
2022-10-23T06:07:25.135Z,1.33
2022-10-23T06:09:54.282Z,0.88
2022-10-23T06:12:21.939Z,1.02
2022-10-23T06:17:20.175Z,1.20
2022-10-23T06:19:47.076Z,1.40
2022-10-23T06:22:17.355Z,1.50
2022-10-23T06:24:58.946Z,1.02
2022-10-23T06:27:27.219Z,1.42
2022-10-23T06:29:55.145Z,1.33
2022-10-23T06:32:23.334Z,0.90
2022-10-23T06:35:09.485Z,1.60
2022-10-23T06:37:36.169Z,0.82
2022-10-23T06:42:59.009Z,1.52
2022-10-23T06:45:55.480Z,1.05
2022-10-23T06:48:46.970Z,1.48
2022-10-23T06:51:22.412Z,1.23
2022-10-23T06:53:49.879Z,1.02
2022-10-23T06:56:39.406Z,0.90
2022-10-23T06:59:08.033Z,1.10
2022-10-23T07:01:36.120Z,1.00
2022-10-23T07:04:07.562Z,1.10
2022-10-23T07:06:34.291Z,1.58
2022-10-23T07:09:01.328Z,0.95
2022-10-23T07:11:48.068Z,1.13
2022-10-23T07:14:15.030Z,1.17
2022-10-23T07:16:42.355Z,1.13
2022-10-23T07:19:11.247Z,1.67
2022-10-23T07:21:43.759Z,1.40
2022-10-23T07:24:31.914Z,1.92
2022-10-23T07:27:00.611Z,1.25
2022-10-23T07:29:29.052Z,1.65
2022-10-23T07:31:57.510Z,1.13
2022-10-23T07:35:04.064Z,1.27
2022-10-23T07:37:33.907Z,1.35
2022-10-23T07:40:03.094Z,1.13
2022-10-23T07:42:32.588Z,1.50
2022-10-23T07:44:59.251Z,1.10
2022-10-23T07:47:26.026Z,1.40
2022-10-23T07:49:53.012Z,0.80
2022-10-23T07:52:21.724Z,0.90
2022-10-23T07:57:38.451Z,0.75
2022-10-23T08:00:27.871Z,0.73
2022-10-23T08:03:04.098Z,1.05
2022-10-23T08:05:31.941Z,0.85
2022-10-23T08:08:02.519Z,0.98
2022-10-23T08:10:30.277Z,0.93
2022-10-23T08:12:58.207Z,0.93
2022-10-23T08:15:45.227Z,0.90
2022-10-23T08:18:31.417Z,1.10
2022-10-23T08:21:02.058Z,1.02
2022-10-23T08:23:30.765Z,1.02
2022-10-23T08:25:59.048Z,1.13
2022-10-23T08:28:26.112Z,0.90
2022-10-23T08:30:55.871Z,0.80
2022-10-23T08:33:22.933Z,1.70
2022-10-23T08:35:50.757Z,0.82
2022-10-23T08:38:25.092Z,0.70
2022-10-23T08:40:53.824Z,0.88
2022-10-23T08:43:34.358Z,1.10
2022-10-23T08:49:35.747Z,0.93
2022-10-23T08:52:14.106Z,0.68
2022-10-23T08:54:48.613Z,1.08
2022-10-23T08:57:18.476Z,1.17
2022-10-23T08:59:48.133Z,1.38
2022-10-23T09:02:20.453Z,1.23
2022-10-23T09:04:50.387Z,1.35
2022-10-23T09:07:34.021Z,1.10
2022-10-23T09:10:16.508Z,1.30
2022-10-23T09:12:44.597Z,1.13
2022-10-23T09:15:23.160Z,1.02
2022-10-23T09:17:55.981Z,1.15
2022-10-23T09:20:25.714Z,1.38
2022-10-23T09:22:55.087Z,0.90
2022-10-23T09:25:25.466Z,0.80
2022-10-23T09:27:57.441Z,1.00
2022-10-23T09:30:29.913Z,0.70
2022-10-23T09:32:56.587Z,0.63
2022-10-23T09:35:25.730Z,0.50
2022-10-23T09:37:55.773Z,0.50
2022-10-23T09:40:30.227Z,0.65
2022-10-23T09:43:00.584Z,0.30
2022-10-23T09:45:31.542Z,0.47
2022-10-23T09:48:11.656Z,0.30
2022-10-23T09:50:47.374Z,0.40
2022-10-23T09:53:17.128Z,0.28
2022-10-23T09:55:51.517Z,0.32
2022-10-23T09:58:25.064Z,0.30
2022-10-23T10:00:54.704Z,0.30
2022-10-23T10:03:37.706Z,0.43
2022-10-23T10:06:23.198Z,0.32
2022-10-23T10:08:53.343Z,0.30
2022-10-23T10:11:25.842Z,0.52
2022-10-23T10:14:06.832Z,0.45
2022-10-23T10:16:42.568Z,0.82
2022-10-23T10:19:20.047Z,0.60
2022-10-23T10:21:52.907Z,0.65
2022-10-23T10:24:25.901Z,0.38
2022-10-23T10:27:00.939Z,0.30
2022-10-23T10:29:43.917Z,0.52
2022-10-23T10:32:24.909Z,0.75
2022-10-23T10:34:58.902Z,0.45
2022-10-23T10:37:31.431Z,0.40
2022-10-23T10:40:02.965Z,0.55
2022-10-23T10:42:42.273Z,0.40
2022-10-23T10:45:19.745Z,0.75
2022-10-23T10:48:00.877Z,0.63
2022-10-23T10:50:42.699Z,0.32
2022-10-23T10:53:28.189Z,0.63
2022-10-23T10:55:57.395Z,0.32
2022-10-23T10:58:31.914Z,0.32
2022-10-23T11:01:03.913Z,0.43
2022-10-23T11:03:39.879Z,0.40
2022-10-23T11:06:15.216Z,0.47
2022-10-23T11:08:56.250Z,0.40
2022-10-23T11:11:31.514Z,0.43
2022-10-23T11:13:58.442Z,0.52
2022-10-23T11:16:30.684Z,0.35
2022-10-23T11:19:11.444Z,0.32
2022-10-23T11:21:44.797Z,0.43
2022-10-23T11:24:27.655Z,0.32
2022-10-23T11:27:19.255Z,0.60
2022-10-23T11:30:04.139Z,0.40
2022-10-23T11:33:14.934Z,0.30
2022-10-23T11:35:54.815Z,0.47
2022-10-23T11:38:27.125Z,0.35
2022-10-23T11:40:56.407Z,0.35
2022-10-23T11:43:28.397Z,0.30
2022-10-23T11:45:55.382Z,0.40
2022-10-23T11:48:35.517Z,0.63
2022-10-23T11:51:05.141Z,0.40
2022-10-23T11:53:40.269Z,0.52
2022-10-23T11:56:26.646Z,0.30
2022-10-23T11:58:55.692Z,0.60
2022-10-23T12:01:31.396Z,0.65
2022-10-23T12:04:03.886Z,0.52
2022-10-23T12:06:38.075Z,0.40
2022-10-23T12:09:08.075Z,0.43
2022-10-23T12:11:44.688Z,0.55
2022-10-23T12:14:27.796Z,0.68
2022-10-23T12:16:54.640Z,0.63
2022-10-23T12:19:25.097Z,0.43
2022-10-23T12:21:53.633Z,0.35
2022-10-23T12:24:49.172Z,0.47
2022-10-23T12:27:28.559Z,0.35
2022-10-23T12:30:09.513Z,0.63
2022-10-23T12:32:46.862Z,0.38
2022-10-23T12:35:27.749Z,0.55
2022-10-23T12:38:10.326Z,0.55
2022-10-23T12:40:37.334Z,0.35
2022-10-23T12:43:20.749Z,0.63
2022-10-23T12:45:48.045Z,0.47
2022-10-23T12:48:19.709Z,0.60
2022-10-23T12:50:51.106Z,0.40
2022-10-23T12:53:19.823Z,0.88
2022-10-23T12:58:19.517Z,0.50
2022-10-23T13:00:51.496Z,0.70
2022-10-23T13:03:21.681Z,0.50
2022-10-23T13:05:51.497Z,0.50
2022-10-23T13:08:19.001Z,0.60
2022-10-23T13:11:06.743Z,0.95
2022-10-23T13:13:40.410Z,0.68
2022-10-23T13:16:14.461Z,0.82
2022-10-23T13:18:42.043Z,0.95
2022-10-23T13:21:17.967Z,0.65
2022-10-23T13:23:45.166Z,0.90
2022-10-23T13:26:28.668Z,0.40
2022-10-23T13:28:56.346Z,0.65
2022-10-23T13:31:26.888Z,0.60
2022-10-23T13:34:17.405Z,0.45
2022-10-23T13:37:23.556Z,0.57
2022-10-23T13:39:59.746Z,0.40
2022-10-23T13:42:26.492Z,0.85
2022-10-23T13:44:53.357Z,0.55
2022-10-23T13:47:20.645Z,0.55
2022-10-23T13:49:47.612Z,0.73
2022-10-23T13:52:19.323Z,0.57
2022-10-23T13:54:47.698Z,0.52
2022-10-23T13:57:15.756Z,0.80
2022-10-23T13:59:42.706Z,0.60
2022-10-23T14:02:18.668Z,0.55
2022-10-23T14:04:46.552Z,0.50
2022-10-23T14:07:13.522Z,0.45
2022-10-23T14:09:40.236Z,0.50
2022-10-23T14:12:08.662Z,0.32
2022-10-23T14:14:35.366Z,0.52
2022-10-23T14:17:01.981Z,0.35
2022-10-23T14:19:28.841Z,0.55
2022-10-23T14:21:55.771Z,0.52
2022-10-23T14:24:22.651Z,0.60
2022-10-23T14:26:49.402Z,0.68
2022-10-23T14:29:22.900Z,0.50
2022-10-23T14:31:50.951Z,0.70
2022-10-23T14:34:17.717Z,0.70
2022-10-23T14:36:50.284Z,0.43
2022-10-23T14:39:18.148Z,0.35
2022-10-23T14:41:45.070Z,0.45
2022-10-23T14:44:11.755Z,0.75
2022-10-23T14:46:39.888Z,0.45
2022-10-23T14:49:06.967Z,0.68
2022-10-23T14:51:33.829Z,0.40
2022-10-23T14:54:02.590Z,0.52
2022-10-23T14:59:02.706Z,0.45
2022-10-23T15:01:30.124Z,0.40
2022-10-23T15:03:58.553Z,0.30
2022-10-23T15:06:25.690Z,0.35
2022-10-23T15:08:56.505Z,0.55
2022-10-23T15:11:24.861Z,0.50
2022-10-23T15:13:52.078Z,0.32
2022-10-23T15:16:18.990Z,0.43
2022-10-23T15:18:45.970Z,0.40
2022-10-23T15:21:14.838Z,0.30
2022-10-23T15:23:45.083Z,0.65
2022-10-23T15:26:14.322Z,0.50
2022-10-23T15:28:41.036Z,0.47
2022-10-23T15:31:24.140Z,0.45
2022-10-23T15:33:50.841Z,0.40
2022-10-23T15:36:19.104Z,0.63
2022-10-23T15:38:46.002Z,0.55
2022-10-23T15:41:15.395Z,0.60
2022-10-23T15:43:42.174Z,0.60
2022-10-23T15:46:09.080Z,1.05
2022-10-23T15:48:35.791Z,0.68
2022-10-23T15:51:02.530Z,1.17
2022-10-23T15:53:30.640Z,0.63
2022-10-23T15:55:58.780Z,0.73
2022-10-23T15:58:25.871Z,0.52
2022-10-23T16:00:52.669Z,0.65
2022-10-23T16:03:19.393Z,0.65
2022-10-23T16:05:46.286Z,0.50
2022-10-23T16:08:13.231Z,0.60
2022-10-23T16:10:42.287Z,0.90
2022-10-23T16:13:09.148Z,0.50
2022-10-23T16:15:36.251Z,0.55
2022-10-23T16:18:03.226Z,1.00
2022-10-23T16:20:30.455Z,0.70
2022-10-23T16:22:57.154Z,0.65
2022-10-23T16:25:24.124Z,0.52
2022-10-23T16:27:52.336Z,0.98
2022-10-23T16:30:21.383Z,1.10
2022-10-23T16:32:48.097Z,1.15
2022-10-23T16:35:14.822Z,0.50
2022-10-23T16:37:54.759Z,0.60
2022-10-23T16:40:21.438Z,0.52
2022-10-23T16:43:08.337Z,0.40
2022-10-23T16:45:45.267Z,0.60
2022-10-23T16:48:11.921Z,0.52
2022-10-23T16:53:06.227Z,0.80
2022-10-23T16:55:32.889Z,0.93
2022-10-23T16:58:00.745Z,0.75
2022-10-23T17:00:34.832Z,1.13
2022-10-23T17:03:02.703Z,0.63
2022-10-23T17:05:32.450Z,0.93
2022-10-23T17:07:59.121Z,0.70
2022-10-23T17:10:25.897Z,0.52
2022-10-23T17:12:52.608Z,0.60
2022-10-23T17:15:21.187Z,0.77
2022-10-23T17:17:49.371Z,1.20
2022-10-23T17:20:16.118Z,2.25
2022-10-23T17:22:42.921Z,4.70
2022-10-23T17:25:10.462Z,2.65
2022-10-23T17:27:37.354Z,2.53
2022-10-23T17:30:08.158Z,3.92
2022-10-23T17:32:37.331Z,1.65
2022-10-23T17:35:08.373Z,3.22
2022-10-23T17:37:35.319Z,5.10
2022-10-23T17:40:05.017Z,3.80
2022-10-23T17:42:31.974Z,5.30
2022-10-23T17:44:58.932Z,6.60
2022-10-23T17:47:25.614Z,5.22
2022-10-23T17:49:52.615Z,3.17
2022-10-23T17:52:20.598Z,2.75
2022-10-23T17:54:51.464Z,4.93
2022-10-23T17:57:18.195Z,4.57
2022-10-23T17:59:44.905Z,1.77
2022-10-23T18:02:13.683Z,1.60
2022-10-23T18:04:40.750Z,3.35
2022-10-23T18:07:07.558Z,3.90
2022-10-23T18:09:35.720Z,5.68
2022-10-23T18:12:02.537Z,2.60
2022-10-23T18:14:29.922Z,9.30
2022-10-23T18:16:56.829Z,7.97
2022-10-23T18:19:23.715Z,4.15
2022-10-23T18:21:50.392Z,3.00
2022-10-23T18:24:18.154Z,5.20
2022-10-23T18:26:48.113Z,3.60
2022-10-23T18:29:17.277Z,4.80
2022-10-23T18:31:45.331Z,5.78
2022-10-23T18:34:15.978Z,6.00
2022-10-23T18:36:43.005Z,5.65
2022-10-23T18:39:13.404Z,4.38
2022-10-23T18:41:42.881Z,4.13
2022-10-23T18:44:15.423Z,6.65
2022-10-23T18:46:42.443Z,6.28
2022-10-23T18:49:09.313Z,5.35
2022-10-23T18:51:37.014Z,3.72
2022-10-23T18:54:06.994Z,3.63
2022-10-23T18:56:35.837Z,2.58
2022-10-23T18:59:05.263Z,3.55
2022-10-23T19:01:34.769Z,3.17
2022-10-23T19:04:02.266Z,2.33
2022-10-23T19:06:29.905Z,3.22
2022-10-23T19:08:57.274Z,3.42
2022-10-23T19:11:26.454Z,2.45
2022-10-23T19:13:53.302Z,3.80
2022-10-23T19:16:25.873Z,2.83
2022-10-23T19:18:57.350Z,2.63
2022-10-23T19:21:31.119Z,2.10
2022-10-23T19:24:00.452Z,2.13
2022-10-23T19:26:27.813Z,3.15
2022-10-23T19:28:54.527Z,4.15
2022-10-23T19:31:23.358Z,3.58
2022-10-23T19:33:50.628Z,3.67
2022-10-23T19:36:23.032Z,4.72
2022-10-23T19:38:50.569Z,2.88
2022-10-23T19:41:18.842Z,5.38
2022-10-23T19:43:45.614Z,5.15
2022-10-23T19:46:12.623Z,5.47
2022-10-23T19:48:44.115Z,3.70
2022-10-23T19:51:12.998Z,3.50
2022-10-23T19:53:41.956Z,3.10
2022-10-23T19:56:10.949Z,2.42
2022-10-23T19:58:38.007Z,4.00
2022-10-23T20:01:10.498Z,2.67
2022-10-23T20:03:37.849Z,2.65
2022-10-23T20:06:07.632Z,2.20
2022-10-23T20:08:35.151Z,2.60
2022-10-23T20:11:03.582Z,3.15
2022-10-23T20:13:30.606Z,3.00
2022-10-23T20:15:57.432Z,3.08
2022-10-23T20:18:25.822Z,3.45
2022-10-23T20:20:53.199Z,3.67
2022-10-23T20:23:19.936Z,4.35
2022-10-23T20:25:46.683Z,3.97
2022-10-23T20:28:15.323Z,4.57
2022-10-23T20:30:42.648Z,3.30
2022-10-23T20:33:09.489Z,4.10
2022-10-23T20:35:40.384Z,3.17
2022-10-23T20:38:08.236Z,3.97
2022-10-23T20:40:35.735Z,4.00
2022-10-23T20:43:02.510Z,3.60
2022-10-23T20:45:30.624Z,6.13
2022-10-23T20:47:57.352Z,4.57
2022-10-23T20:50:24.114Z,4.18
2022-10-23T20:52:51.399Z,4.53
2022-10-23T20:55:18.972Z,3.88
2022-10-23T20:57:46.742Z,4.28
2022-10-23T21:00:15.246Z,3.63
2022-10-23T21:02:47.012Z,4.22
2022-10-23T21:05:15.790Z,3.08
2022-10-23T21:07:42.659Z,3.13
2022-10-23T21:10:09.589Z,3.40
2022-10-23T21:12:36.295Z,3.70
2022-10-23T21:15:03.052Z,3.55
2022-10-23T21:17:35.279Z,2.88
2022-10-23T21:20:04.245Z,2.38
2022-10-23T21:22:31.273Z,2.00
2022-10-23T21:25:00.153Z,2.50
2022-10-23T21:27:27.044Z,1.35
2022-10-23T21:29:53.872Z,2.33
2022-10-23T21:32:20.856Z,3.13
2022-10-23T21:34:47.617Z,1.92
2022-10-23T21:37:15.769Z,2.72
2022-10-23T21:39:43.710Z,1.98
2022-10-23T21:42:10.895Z,2.25
2022-10-23T21:44:37.621Z,1.30
2022-10-23T21:47:04.533Z,2.08
2022-10-23T21:49:31.539Z,1.13
2022-10-23T21:51:58.407Z,1.70
2022-10-23T21:54:26.695Z,0.93
2022-10-23T21:56:53.935Z,1.50
2022-10-23T21:59:22.672Z,2.10
2022-10-23T22:01:50.035Z,2.22
2022-10-23T22:04:18.538Z,1.20
2022-10-23T22:06:46.929Z,0.98
2022-10-23T22:09:15.327Z,1.65
2022-10-23T22:11:43.422Z,1.80
2022-10-23T22:14:10.238Z,1.05
2022-10-23T22:16:37.048Z,1.45
2022-10-23T22:19:04.070Z,1.75
2022-10-23T22:21:31.040Z,1.02
2022-10-23T22:23:59.566Z,1.30
2022-10-23T22:26:28.690Z,1.17
2022-10-23T22:28:59.385Z,1.20
2022-10-23T22:31:28.615Z,1.13
2022-10-23T22:33:56.207Z,1.23
2022-10-23T22:36:23.382Z,1.00
2022-10-23T22:38:50.331Z,1.13
2022-10-23T22:41:18.060Z,1.65
2022-10-23T22:43:45.010Z,0.85
2022-10-23T22:46:15.117Z,1.00
2022-10-23T22:48:42.259Z,1.13
2022-10-23T22:51:12.094Z,1.00
2022-10-23T22:53:38.903Z,1.35
2022-10-23T22:56:06.447Z,1.05
2022-10-23T22:58:33.530Z,1.65
2022-10-23T23:01:04.732Z,0.90
2022-10-23T23:03:34.623Z,1.48
2022-10-23T23:06:03.634Z,0.95
2022-10-23T23:10:57.863Z,0.60
2022-10-23T23:13:25.525Z,1.30
2022-10-23T23:15:52.435Z,0.90
2022-10-23T23:18:19.559Z,0.80
2022-10-23T23:20:47.827Z,1.02
2022-10-23T23:23:15.355Z,1.17
2022-10-23T23:25:42.929Z,0.70
2022-10-23T23:28:11.904Z,0.80
2022-10-23T23:30:38.920Z,0.93
2022-10-23T23:33:05.624Z,0.80
2022-10-23T23:35:32.371Z,1.10
2022-10-23T23:38:00.614Z,0.60
2022-10-23T23:40:27.370Z,0.77
2022-10-23T23:42:54.007Z,0.77
2022-10-23T23:45:20.796Z,1.00
2022-10-23T23:47:47.781Z,0.95
2022-10-23T23:50:15.237Z,0.90
2022-10-23T23:52:42.074Z,0.65
2022-10-23T23:55:10.761Z,0.80
2022-10-23T23:57:37.501Z,0.90
